Time;durP1;ratioP1;P1;durP2;ratioP2;P2;SDS_P1;SDS_P2;PMS_P1;PMS_P2;Temp;Humidity;BMP_temperature;BMP_pressure;BME280_temperature;BME280_humidity;BME280_pressure;Samples;Min_cycle;Max_cycle;Signal;HPM_P1;HPM_P2
2022/06/17 00:08:49;;;;;;;6.8;10.5;;;;;;;14;100;98740;;;;
2022/06/17 00:18:48;;;;;;;6.8;10.5;;;;;;;13.9;100;98730;;;;
2022/06/17 00:28:48;;;;;;;7.4;12.3;;;;;;;13.9;100;98730;;;;
2022/06/17 00:38:48;;;;;;;7.4;12.3;;;;;;;13.8;100;98720;;;;
2022/06/17 00:49:48;;;;;;;7.4;12.3;;;;;;;13.8;100;98720;;;;
2022/06/17 00:59:48;;;;;;;8.8;12.2;;;;;;;13.7;100;98720;;;;
2022/06/17 01:10:48;;;;;;;8.8;12.2;;;;;;;13.7;100;98730;;;;
2022/06/17 01:21:49;;;;;;;8.8;12.2;;;;;;;13.7;100;98740;;;;
2022/06/17 01:32:48;;;;;;;7.9;11;;;;;;;13.7;100;98760;;;;
2022/06/17 01:42:48;;;;;;;7.9;11;;;;;;;13.8;100;98760;;;;
2022/06/17 01:52:48;;;;;;;7.9;11;;;;;;;13.8;100;98770;;;;
2022/06/17 02:03:48;;;;;;;6.5;9.8;;;;;;;13.9;100;98790;;;;
2022/06/17 02:13:48;;;;;;;6.5;9.8;;;;;;;13.8;100;98790;;;;
2022/06/17 02:24:48;;;;;;;6.5;9.8;;;;;;;13.9;100;98800;;;;
2022/06/17 02:35:48;;;;;;;6.5;9.7;;;;;;;13.9;100;98800;;;;
2022/06/17 02:45:48;;;;;;;6.5;9.7;;;;;;;14;100;98800;;;;
2022/06/17 02:56:48;;;;;;;6;9;;;;;;;14.1;100;98810;;;;
2022/06/17 03:06:49;;;;;;;6;9;;;;;;;14.3;100;98820;;;;
2022/06/17 03:17:48;;;;;;;6;9;;;;;;;14.4;100;98840;;;;
2022/06/17 03:27:48;;;;;;;7.7;10.6;;;;;;;14.4;100;98840;;;;
2022/06/17 03:38:49;;;;;;;7.7;10.6;;;;;;;14.6;100;98860;;;;
2022/06/17 03:48:48;;;;;;;7.7;10.6;;;;;;;14.8;100;98860;;;;
2022/06/17 03:59:49;;;;;;;9.7;12.2;;;;;;;15;100;98870;;;;
2022/06/17 04:09:48;;;;;;;9.7;12.2;;;;;;;15.5;100;98880;;;;
2022/06/17 04:20:48;;;;;;;9.7;12.2;;;;;;;15.5;100;98900;;;;
2022/06/17 04:30:48;;;;;;;9.9;13.6;;;;;;;15.6;100;98910;;;;
2022/06/17 04:40:48;;;;;;;9.9;13.6;;;;;;;15.6;100;98920;;;;
2022/06/17 04:50:48;;;;;;;9.9;13.6;;;;;;;15.7;100;98930;;;;
2022/06/17 05:01:48;;;;;;;15.4;19.1;;;;;;;15.5;100;98930;;;;
2022/06/17 05:11:48;;;;;;;15.4;19.1;;;;;;;15.4;100;98920;;;;
2022/06/17 05:21:48;;;;;;;15.4;19.1;;;;;;;15.5;100;98930;;;;
2022/06/17 05:32:48;;;;;;;18.7;20.9;;;;;;;15.9;100;98950;;;;
2022/06/17 05:42:49;;;;;;;18.7;20.9;;;;;;;16.1;100;98960;;;;
2022/06/17 05:53:48;;;;;;;18.7;20.9;;;;;;;17;100;98960;;;;
2022/06/17 06:03:48;;;;;;;18.1;24;;;;;;;17.2;100;98970;;;;
2022/06/17 06:13:48;;;;;;;18.1;24;;;;;;;17.2;100;98990;;;;
2022/06/17 06:24:48;;;;;;;18.1;24;;;;;;;17.6;100;98990;;;;
2022/06/17 06:34:49;;;;;;;15.7;19;;;;;;;18.2;100;99000;;;;
2022/06/17 06:45:48;;;;;;;15.7;19;;;;;;;18;100;99010;;;;
2022/06/17 06:55:49;;;;;;;15.7;19;;;;;;;17.7;100;99020;;;;
2022/06/17 07:05:48;;;;;;;14.3;17.3;;;;;;;18.1;100;99020;;;;
2022/06/17 07:16:48;;;;;;;14.3;17.3;;;;;;;17.8;100;99020;;;;
2022/06/17 07:26:48;;;;;;;15.8;18.8;;;;;;;17.6;100;99020;;;;
2022/06/17 07:48:48;;;;;;;15.8;18.8;;;;;;;17.2;100;99030;;;;
2022/06/17 07:59:48;;;;;;;18.2;21.5;;;;;;;16.9;100;99040;;;;
2022/06/17 08:09:48;;;;;;;18.2;21.5;;;;;;;16.9;100;99040;;;;
2022/06/17 08:19:51;;;;;;;18.2;21.5;;;;;;;17.7;100;99050;;;;
2022/06/17 08:29:48;;;;;;;17.6;19.9;;;;;;;18.3;100;99070;;;;
2022/06/17 08:39:48;;;;;;;17.6;19.9;;;;;;;19.1;100;99080;;;;
2022/06/17 08:49:48;;;;;;;17.6;19.9;;;;;;;18.6;100;99080;;;;
2022/06/17 09:00:48;;;;;;;13.8;19.2;;;;;;;19;100;99090;;;;
2022/06/17 09:10:49;;;;;;;13.8;19.2;;;;;;;19.3;100;99110;;;;
2022/06/17 09:20:48;;;;;;;13.8;19.2;;;;;;;19.8;100;99120;;;;
2022/06/17 09:30:48;;;;;;;16.3;22.7;;;;;;;19.5;100;99120;;;;
2022/06/17 09:41:48;;;;;;;16.3;22.7;;;;;;;20;100;99130;;;;
2022/06/17 09:52:49;;;;;;;16.3;22.7;;;;;;;20.4;100;99130;;;;
2022/06/17 10:02:48;;;;;;;14.4;17.5;;;;;;;20.6;100;99140;;;;
2022/06/17 10:12:48;;;;;;;14.4;17.5;;;;;;;20.9;100;99140;;;;
2022/06/17 10:23:49;;;;;;;14.4;17.5;;;;;;;20.7;100;99140;;;;
2022/06/17 10:33:48;;;;;;;14.4;17;;;;;;;21.3;100;99150;;;;
2022/06/17 10:44:48;;;;;;;14.4;17;;;;;;;20.1;100;99150;;;;
2022/06/17 10:55:48;;;;;;;14.4;17;;;;;;;19.5;100;99150;;;;
2022/06/17 11:06:48;;;;;;;16.8;22.7;;;;;;;20.1;100;99130;;;;
2022/06/17 11:16:48;;;;;;;16.8;22.7;;;;;;;20;100;99140;;;;
2022/06/17 11:26:48;;;;;;;14.2;17.1;;;;;;;20.7;100;99130;;;;
2022/06/17 11:36:48;;;;;;;14.2;17.1;;;;;;;21.8;100;99120;;;;
2022/06/17 11:47:49;;;;;;;14.2;17.1;;;;;;;21.3;100;99130;;;;
2022/06/17 11:57:48;;;;;;;7.4;10.5;;;;;;;22.3;100;99120;;;;
2022/06/17 12:08:48;;;;;;;7.4;10.5;;;;;;;22.5;100;99140;;;;
2022/06/17 12:19:48;;;;;;;7.4;10.5;;;;;;;22.1;100;99130;;;;
2022/06/17 12:29:48;;;;;;;4.5;7.8;;;;;;;21.9;100;99120;;;;
2022/06/17 12:40:49;;;;;;;4.5;7.8;;;;;;;22.5;100;99120;;;;
2022/06/17 13:00:48;;;;;;;2.6;5.7;;;;;;;21.6;100;99130;;;;
2022/06/17 13:10:48;;;;;;;2.6;5.7;;;;;;;21.8;100;99120;;;;
2022/06/17 13:21:48;;;;;;;2.6;5.7;;;;;;;21.6;100;99120;;;;
2022/06/17 13:32:48;;;;;;;2.1;4;;;;;;;22.9;100;99110;;;;
2022/06/17 13:43:48;;;;;;;2.1;4;;;;;;;22.3;98.5;99120;;;;
2022/06/17 13:53:48;;;;;;;2.1;4;;;;;;;22.6;96.8;99130;;;;
2022/06/17 14:04:49;;;;;;;1.3;3.7;;;;;;;23.3;88.9;99140;;;;
2022/06/17 14:15:48;;;;;;;1.3;3.7;;;;;;;23.6;87.1;99130;;;;
2022/06/17 14:26:48;;;;;;;1.1;2.9;;;;;;;23.2;86;99130;;;;
2022/06/17 14:37:49;;;;;;;1.1;2.9;;;;;;;22.8;90.4;99140;;;;
2022/06/17 14:47:48;;;;;;;1.1;2.9;;;;;;;22.5;95.7;99140;;;;
2022/06/17 14:58:48;;;;;;;1.2;2.9;;;;;;;24.4;89.7;99130;;;;
2022/06/17 15:08:48;;;;;;;1.2;2.9;;;;;;;23.8;81.1;99140;;;;
2022/06/17 15:18:48;;;;;;;1.2;2.9;;;;;;;23;84.3;99130;;;;
2022/06/17 15:28:48;;;;;;;1.6;4.5;;;;;;;23;87;99130;;;;
2022/06/17 15:39:48;;;;;;;1.6;4.5;;;;;;;24.1;84.1;99130;;;;
2022/06/17 15:50:48;;;;;;;1.6;4.5;;;;;;;27.9;76.2;99130;;;;
2022/06/17 16:01:48;;;;;;;1.6;5.2;;;;;;;29.6;59.6;99130;;;;
2022/06/17 16:11:48;;;;;;;1.6;5.2;;;;;;;29.6;57.9;99130;;;;
2022/06/17 16:22:48;;;;;;;1.6;5.2;;;;;;;26.1;64.5;99120;;;;
2022/06/17 16:32:48;;;;;;;1.1;3;;;;;;;25.2;68.3;99130;;;;
2022/06/17 16:44:04;;;;;;;1.1;3;;;;;;;23.2;78;99130;;;;
2022/06/17 16:54:49;;;;;;;1.1;3;;;;;;;23.4;79.5;99130;;;;
2022/06/17 17:04:48;;;;;;;2.4;5.3;;;;;;;22.2;83.7;99130;;;;
2022/06/17 17:15:48;;;;;;;2.4;5.3;;;;;;;22.2;85;99120;;;;
2022/06/17 17:25:52;;;;;;;2.4;5.3;;;;;;;23;84.4;99130;;;;
2022/06/17 17:35:49;;;;;;;2.7;6;;;;;;;26;70.8;99140;;;;
2022/06/17 17:45:49;;;;;;;2.7;6;;;;;;;25.9;70.8;99140;;;;
2022/06/17 17:55:48;;;;;;;2.7;6;;;;;;;24.2;75.2;99140;;;;
2022/06/17 18:06:48;;;;;;;1.8;4.5;;;;;;;22.8;78.9;99140;;;;
2022/06/17 18:16:48;;;;;;;1.8;4.5;;;;;;;21.6;85.6;99140;;;;
2022/06/17 18:26:48;;;;;;;1.7;4.1;;;;;;;20.4;93.5;99140;;;;
2022/06/17 18:36:48;;;;;;;1.7;4.1;;;;;;;19.8;97.4;99140;;;;
2022/06/17 18:47:48;;;;;;;1.7;4.1;;;;;;;18.8;100;99150;;;;
2022/06/17 18:58:48;;;;;;;2.7;5.9;;;;;;;18.1;100;99170;;;;
2022/06/17 19:20:49;;;;;;;2.7;5.9;;;;;;;16.8;100;99180;;;;
2022/06/17 19:30:48;;;;;;;6.5;10.5;;;;;;;16.4;100;99190;;;;
2022/06/17 19:41:53;;;;;;;6.5;10.5;;;;;;;16;100;99200;;;;
2022/06/17 19:52:48;;;;;;;6.5;10.5;;;;;;;15.8;100;99210;;;;
2022/06/17 20:02:49;;;;;;;6.2;9.9;;;;;;;15.5;100;99210;;;;
2022/06/17 20:12:48;;;;;;;6.2;9.9;;;;;;;15.3;100;99210;;;;
2022/06/17 20:22:51;;;;;;;6.2;9.9;;;;;;;15.2;100;99220;;;;
2022/06/17 20:33:48;;;;;;;4.7;7.8;;;;;;;15.1;100;99220;;;;
2022/06/17 20:54:49;;;;;;;4.7;7.8;;;;;;;14.7;100;99220;;;;
2022/06/17 21:04:49;;;;;;;3.9;6.5;;;;;;;14.6;100;99220;;;;
2022/06/17 21:14:48;;;;;;;3.9;6.5;;;;;;;14.4;100;99220;;;;
2022/06/17 21:24:48;;;;;;;3.9;6.5;;;;;;;14.2;100;99220;;;;
2022/06/17 21:34:49;;;;;;;5.1;9.5;;;;;;;14.1;100;99210;;;;
2022/06/17 21:45:48;;;;;;;5.1;9.5;;;;;;;13.8;100;99210;;;;
2022/06/17 21:55:48;;;;;;;5.1;9.5;;;;;;;13.7;100;99210;;;;
2022/06/17 22:06:49;;;;;;;5.5;8.7;;;;;;;13.5;100;99220;;;;
2022/06/17 22:16:48;;;;;;;5.5;8.7;;;;;;;13.5;100;99230;;;;
2022/06/17 22:26:49;;;;;;;5.8;9;;;;;;;13.6;100;99230;;;;
2022/06/17 22:37:49;;;;;;;5.8;9;;;;;;;13.8;100;99230;;;;
2022/06/17 22:47:49;;;;;;;5.8;9;;;;;;;13.9;100;99220;;;;
2022/06/17 22:58:49;;;;;;;6.1;8.7;;;;;;;13.9;100;99230;;;;
2022/06/17 23:08:49;;;;;;;6.1;8.7;;;;;;;13.8;100;99230;;;;
2022/06/17 23:20:05;;;;;;;6.1;8.7;;;;;;;13.9;100;99240;;;;
2022/06/17 23:29:49;;;;;;;5.7;9.9;;;;;;;14;100;99240;;;;
2022/06/17 23:40:49;;;;;;;5.7;9.9;;;;;;;14.2;100;99240;;;;
2022/06/17 23:51:49;;;;;;;5.7;9.9;;;;;;;14.2;100;99230;;;;
